createdAt,value
2019-02-25T00:02:26.098Z,65.50
2019-02-25T00:05:03.391Z,66.70
2019-02-25T00:07:40.561Z,67.00
2019-02-25T00:10:17.986Z,69.20
2019-02-25T00:12:54.954Z,52.30
2019-02-25T00:15:32.029Z,52.90
2019-02-25T00:18:09.107Z,53.70
2019-02-25T00:20:46.279Z,53.50
2019-02-25T00:23:23.498Z,52.70
2019-02-25T00:26:00.566Z,52.30
2019-02-25T00:28:40.319Z,52.90
2019-02-25T00:31:17.415Z,53.10
2019-02-25T00:33:54.463Z,53.00
2019-02-25T00:36:34.740Z,52.40
2019-02-25T00:39:12.782Z,52.80
2019-02-25T00:41:49.899Z,53.20
2019-02-25T00:44:26.960Z,53.40
2019-02-25T00:47:04.001Z,51.50
2019-02-25T00:49:41.096Z,51.30
2019-02-25T00:52:18.311Z,50.60
2019-02-25T00:54:55.275Z,82.80
2019-02-25T00:57:32.544Z,50.90
2019-02-25T01:00:11.969Z,50.90
2019-02-25T01:02:49.116Z,51.20
2019-02-25T01:05:26.255Z,51.30
2019-02-25T01:08:03.411Z,51.00
2019-02-25T01:10:40.452Z,50.70
2019-02-25T01:13:17.666Z,51.10
2019-02-25T01:15:54.809Z,51.10
2019-02-25T01:18:31.851Z,49.90
2019-02-25T01:21:08.988Z,49.70
2019-02-25T01:23:46.047Z,49.10
2019-02-25T01:26:23.065Z,49.80
2019-02-25T01:29:00.110Z,50.00
2019-02-25T01:31:37.299Z,49.60
2019-02-25T01:34:14.392Z,49.10
2019-02-25T01:36:51.496Z,48.10
2019-02-25T01:39:28.558Z,48.40
2019-02-25T01:42:09.051Z,48.40
2019-02-25T01:44:46.111Z,48.40
2019-02-25T01:47:23.152Z,48.10
2019-02-25T01:50:00.290Z,47.90
2019-02-25T01:52:37.344Z,48.10
2019-02-25T01:55:14.852Z,47.80
2019-02-25T01:57:53.280Z,48.90
2019-02-25T02:00:30.429Z,48.20
2019-02-25T02:03:08.743Z,48.90
2019-02-25T02:05:45.785Z,70.80
2019-02-25T02:08:22.765Z,64.50
2019-02-25T02:10:59.984Z,61.30
2019-02-25T02:13:36.993Z,59.00
2019-02-25T02:16:13.994Z,58.00
2019-02-25T02:18:51.082Z,58.00
2019-02-25T02:21:28.126Z,55.60
2019-02-25T02:24:05.199Z,71.30
2019-02-25T02:26:42.443Z,90.70
2019-02-25T02:29:19.505Z,90.70
2019-02-25T02:31:56.544Z,89.90
2019-02-25T02:34:33.625Z,90.30
2019-02-25T02:37:10.603Z,86.40
2019-02-25T02:39:47.699Z,90.00
2019-02-25T02:42:28.870Z,59.10
2019-02-25T02:45:45.710Z,61.30
2019-02-25T02:48:46.022Z,60.10
2019-02-25T02:51:23.016Z,48.40
2019-02-25T02:54:00.280Z,48.00
2019-02-25T02:56:37.377Z,55.50
2019-02-25T02:59:14.751Z,49.60
2019-02-25T03:01:52.120Z,50.30
2019-02-25T03:04:29.268Z,50.00
2019-02-25T03:07:06.405Z,66.70
2019-02-25T03:09:43.584Z,62.10
2019-02-25T03:12:22.375Z,62.80
2019-02-25T03:14:59.513Z,61.30
2019-02-25T03:17:36.622Z,63.00
2019-02-25T03:20:14.195Z,61.20
2019-02-25T03:22:51.193Z,49.80
2019-02-25T03:25:28.307Z,52.00
2019-02-25T03:28:05.490Z,49.50
2019-02-25T03:30:42.556Z,49.10
2019-02-25T03:33:19.710Z,49.70
2019-02-25T03:35:56.899Z,55.30
2019-02-25T03:38:33.950Z,75.40
2019-02-25T03:41:11.117Z,64.00
2019-02-25T03:43:48.127Z,58.50
2019-02-25T03:46:25.187Z,48.00
2019-02-25T03:49:02.255Z,47.90
2019-02-25T03:51:39.273Z,47.70
2019-02-25T03:54:16.322Z,47.80
2019-02-25T03:59:30.225Z,90.10
2019-02-25T04:02:07.370Z,87.70
2019-02-25T04:04:44.580Z,78.30
2019-02-25T04:07:21.686Z,54.40
2019-02-25T04:09:58.729Z,81.60
2019-02-25T04:12:35.728Z,46.10
2019-02-25T04:15:16.942Z,46.10
2019-02-25T04:17:54.212Z,71.60
2019-02-25T04:20:31.452Z,78.10
2019-02-25T04:23:08.559Z,47.10
2019-02-25T04:25:45.587Z,44.80
2019-02-25T04:28:24.218Z,44.60
2019-02-25T04:31:01.377Z,78.40
2019-02-25T04:33:38.343Z,65.70
2019-02-25T04:36:15.407Z,72.10
2019-02-25T04:38:52.428Z,79.80
2019-02-25T04:44:06.091Z,92.40
2019-02-25T04:46:43.108Z,74.70
2019-02-25T04:51:55.403Z,74.40
2019-02-25T04:54:32.494Z,77.90
2019-02-25T04:59:46.088Z,86.10
2019-02-25T05:02:23.210Z,87.00
2019-02-25T05:05:00.357Z,84.20
2019-02-25T05:07:37.460Z,78.10
2019-02-25T05:12:56.258Z,88.80
2019-02-25T05:15:33.818Z,55.10
2019-02-25T05:18:11.165Z,44.50
2019-02-25T05:20:48.269Z,45.60
2019-02-25T05:23:25.415Z,46.10
2019-02-25T05:26:02.443Z,46.00
2019-02-25T05:28:39.583Z,46.00
2019-02-25T05:31:16.861Z,45.80
2019-02-25T05:33:54.047Z,46.20
2019-02-25T05:36:31.052Z,46.50
2019-02-25T05:39:08.572Z,47.60
2019-02-25T05:41:45.697Z,46.60
2019-02-25T05:44:25.507Z,46.00
2019-02-25T05:47:02.620Z,53.90
2019-02-25T05:49:40.170Z,51.40
2019-02-25T05:52:17.157Z,54.60
2019-02-25T06:00:03.370Z,54.90
2019-02-25T06:02:40.406Z,55.90
2019-02-25T06:07:52.880Z,54.60
2019-02-25T06:10:29.989Z,58.70
2019-02-25T06:18:17.225Z,57.50
2019-02-25T06:23:29.998Z,51.90
2019-02-25T06:26:07.071Z,77.50
2019-02-25T06:28:44.180Z,60.30
2019-02-25T06:31:21.204Z,62.80
2019-02-25T06:33:59.503Z,69.00
2019-02-25T06:36:36.615Z,77.90
2019-02-25T06:39:14.658Z,50.80
2019-02-25T06:41:51.767Z,50.70
2019-02-25T06:44:28.844Z,50.50
2019-02-25T06:54:50.156Z,55.10
2019-02-25T07:02:36.410Z,56.90
2019-02-25T07:08:15.573Z,55.80
2019-02-25T07:11:08.166Z,57.50
2019-02-25T07:13:58.963Z,58.00
2019-02-25T07:22:37.291Z,60.90
2019-02-25T07:25:30.629Z,61.60
2019-02-25T07:28:40.148Z,63.20
2019-02-25T07:31:30.166Z,64.90
2019-02-25T07:34:36.827Z,51.80
2019-02-25T07:37:33.138Z,52.40
2019-02-25T07:40:26.250Z,52.70
2019-02-25T07:43:32.596Z,52.70
2019-02-25T07:46:41.872Z,53.00
2019-02-25T07:49:31.049Z,53.20
2019-02-25T07:52:15.407Z,53.70
2019-02-25T07:55:05.726Z,53.90
2019-02-25T07:57:58.266Z,53.80
2019-02-25T08:00:46.603Z,53.90
2019-02-25T08:03:41.093Z,54.20
2019-02-25T08:06:35.582Z,68.70
2019-02-25T08:09:38.373Z,68.50
2019-02-25T08:12:25.773Z,68.80
2019-02-25T08:15:09.132Z,53.10
2019-02-25T08:18:01.296Z,68.30
2019-02-25T08:20:51.847Z,53.00
2019-02-25T08:23:57.523Z,52.70
2019-02-25T08:26:52.272Z,52.70
2019-02-25T08:29:46.706Z,52.80
2019-02-25T08:32:42.742Z,67.70
2019-02-25T08:35:54.261Z,52.90
2019-02-25T08:38:45.650Z,53.10
2019-02-25T08:41:34.087Z,53.70
2019-02-25T08:44:33.000Z,53.40
2019-02-25T08:47:14.784Z,53.90
2019-02-25T08:50:00.713Z,53.80
2019-02-25T08:52:37.927Z,53.90
2019-02-25T08:57:50.554Z,60.00
2019-02-25T09:00:27.736Z,53.90
2019-02-25T09:03:05.142Z,54.10
2019-02-25T09:05:42.416Z,54.00
2019-02-25T09:08:19.674Z,54.40
2019-02-25T09:10:56.746Z,54.40
2019-02-25T09:13:33.849Z,54.30
2019-02-25T09:16:12.135Z,54.30
2019-02-25T09:18:49.169Z,79.20
2019-02-25T09:21:31.784Z,55.20
2019-02-25T09:24:06.559Z,54.60
2019-02-25T09:26:44.766Z,76.80
2019-02-25T09:29:22.393Z,54.70
2019-02-25T09:31:59.752Z,55.20
2019-02-25T09:34:36.828Z,55.60
2019-02-25T09:37:13.919Z,55.40
2019-02-25T09:39:52.043Z,55.40
2019-02-25T09:42:31.624Z,56.70
2019-02-25T09:45:08.894Z,55.80
2019-02-25T09:47:46.088Z,55.80
2019-02-25T09:50:25.236Z,88.40
2019-02-25T09:53:02.619Z,55.30
2019-02-25T09:55:39.879Z,55.40
2019-02-25T09:58:17.156Z,55.40
2019-02-25T10:00:54.307Z,55.30
2019-02-25T10:03:31.406Z,55.40
2019-02-25T10:06:08.657Z,55.10
2019-02-25T10:08:46.575Z,55.30
2019-02-25T10:11:24.011Z,88.50
2019-02-25T10:14:01.318Z,55.70
2019-02-25T10:16:38.788Z,55.50
2019-02-25T10:19:15.893Z,55.40
2019-02-25T10:21:53.393Z,55.50
2019-02-25T10:24:30.682Z,55.50
2019-02-25T10:27:07.823Z,55.80
2019-02-25T10:29:45.025Z,55.60
2019-02-25T10:32:23.661Z,55.60
2019-02-25T10:35:01.771Z,86.80
2019-02-25T10:37:41.214Z,55.70
2019-02-25T10:40:22.234Z,55.50
2019-02-25T10:42:56.955Z,56.00
2019-02-25T10:45:35.084Z,56.00
2019-02-25T10:48:12.560Z,56.00
2019-02-25T10:50:55.740Z,56.30
2019-02-25T10:53:29.919Z,56.40
2019-02-25T10:56:16.572Z,86.40
2019-02-25T10:58:52.794Z,56.40
2019-02-25T11:01:31.371Z,56.20
2019-02-25T11:04:08.551Z,83.40
2019-02-25T11:06:45.599Z,56.10
2019-02-25T11:09:39.861Z,56.50
2019-02-25T11:12:17.029Z,56.10
2019-02-25T11:14:54.304Z,56.30
2019-02-25T11:17:31.413Z,81.60
2019-02-25T11:20:10.894Z,56.30
2019-02-25T11:22:48.599Z,56.40
2019-02-25T11:25:27.526Z,56.80
2019-02-25T11:28:05.407Z,56.70
2019-02-25T11:30:45.048Z,56.60
2019-02-25T11:33:22.718Z,57.20
2019-02-25T11:36:00.031Z,56.80
2019-02-25T11:38:37.490Z,56.70
2019-02-25T11:41:15.890Z,56.70
2019-02-25T11:43:55.094Z,56.70
2019-02-25T11:46:31.275Z,56.70
2019-02-25T11:49:09.422Z,56.70
2019-02-25T11:51:48.216Z,56.70
2019-02-25T11:54:25.856Z,84.40
2019-02-25T11:57:04.505Z,56.50
2019-02-25T11:59:41.597Z,56.40
2019-02-25T12:02:25.147Z,56.70
2019-02-25T12:04:57.970Z,56.90
2019-02-25T12:07:35.129Z,83.90
2019-02-25T12:10:12.564Z,56.70
2019-02-25T12:12:49.867Z,56.70
2019-02-25T12:15:26.996Z,81.50
2019-02-25T12:18:04.670Z,57.00
2019-02-25T12:20:44.635Z,58.10
2019-02-25T12:23:22.373Z,58.80
2019-02-25T12:25:59.427Z,59.10
2019-02-25T12:28:36.664Z,59.20
2019-02-25T12:31:13.859Z,89.80
2019-02-25T12:33:50.905Z,59.60
2019-02-25T12:36:28.171Z,59.80
2019-02-25T12:39:05.357Z,59.90
2019-02-25T12:41:42.525Z,60.10
2019-02-25T12:44:21.442Z,60.70
2019-02-25T12:46:58.562Z,60.60
2019-02-25T12:49:35.580Z,61.40
2019-02-25T12:52:12.689Z,61.90
2019-02-25T12:54:49.700Z,61.40
2019-02-25T12:57:26.798Z,61.50
2019-02-25T13:00:04.000Z,61.80
2019-02-25T13:02:41.172Z,61.70
2019-02-25T13:05:20.100Z,61.60
2019-02-25T13:07:57.162Z,61.80
2019-02-25T13:10:34.179Z,62.30
2019-02-25T13:13:13.070Z,62.60
2019-02-25T13:15:50.093Z,63.10
2019-02-25T13:18:27.077Z,63.80
2019-02-25T13:21:04.215Z,64.20
2019-02-25T13:23:41.439Z,64.00
2019-02-25T13:26:18.507Z,64.30
2019-02-25T13:28:55.602Z,64.20
2019-02-25T13:31:32.775Z,65.00
2019-02-25T13:34:09.858Z,65.10
2019-02-25T13:36:47.093Z,67.40
2019-02-25T13:39:24.342Z,66.00
2019-02-25T13:42:01.462Z,68.40
2019-02-25T13:44:38.553Z,67.30
2019-02-25T13:47:15.662Z,68.50
2019-02-25T13:49:52.779Z,68.30
2019-02-25T13:52:29.842Z,68.50
2019-02-25T13:55:06.987Z,66.60
2019-02-25T13:57:44.190Z,84.50
2019-02-25T14:00:24.852Z,83.50
2019-02-25T14:03:03.353Z,83.80
2019-02-25T14:05:42.892Z,84.00
2019-02-25T14:08:20.102Z,84.20
2019-02-25T14:10:57.227Z,84.10
2019-02-25T14:13:34.478Z,83.40
2019-02-25T14:16:11.703Z,84.50
2019-02-25T14:18:48.849Z,67.00
2019-02-25T14:21:25.983Z,67.60
2019-02-25T14:26:24.446Z,85.10
2019-02-25T14:29:02.302Z,67.40
2019-02-25T14:31:39.493Z,78.90
2019-02-25T14:34:16.511Z,84.30
2019-02-25T14:36:54.940Z,84.00
2019-02-25T14:39:32.848Z,84.70
2019-02-25T14:42:12.166Z,85.30
2019-02-25T14:44:50.034Z,85.40
2019-02-25T14:47:32.254Z,82.60
2019-02-25T14:50:05.335Z,83.00
2019-02-25T14:52:42.646Z,82.30
2019-02-25T14:55:20.420Z,82.00
2019-02-25T14:57:59.898Z,82.20
2019-02-25T15:03:11.703Z,81.70
2019-02-25T15:08:26.056Z,82.20
2019-02-25T15:11:04.450Z,82.80
2019-02-25T15:16:16.271Z,82.30
2019-02-25T15:18:53.435Z,82.50
2019-02-25T15:24:06.855Z,82.70
2019-02-25T15:26:43.530Z,82.80
2019-02-25T15:29:20.644Z,82.30
2019-02-25T15:31:58.950Z,82.90
2019-02-25T15:34:37.575Z,82.90
2019-02-25T15:37:14.197Z,82.70
2019-02-25T15:39:51.510Z,84.20
2019-02-25T15:42:30.063Z,83.40
2019-02-25T15:45:07.022Z,78.30
2019-02-25T15:47:44.832Z,83.90
2019-02-25T15:50:23.489Z,84.30
2019-02-25T15:53:02.544Z,84.90
2019-02-25T15:55:39.129Z,85.40
2019-02-25T15:58:16.537Z,85.30
2019-02-25T16:03:31.892Z,84.70
2019-02-25T16:06:10.591Z,86.00
2019-02-25T16:08:50.369Z,85.80
2019-02-25T16:11:27.807Z,86.60
2019-02-25T16:14:07.039Z,86.40
2019-02-25T16:16:44.524Z,87.10
2019-02-25T16:19:21.826Z,87.60
2019-02-25T16:22:00.244Z,86.70
2019-02-25T16:24:37.371Z,87.40
2019-02-25T16:27:14.703Z,87.70
2019-02-25T16:29:51.830Z,87.70
2019-02-25T16:32:29.941Z,87.70
2019-02-25T16:35:07.240Z,87.40
2019-02-25T16:40:20.012Z,88.10
2019-02-25T16:42:59.495Z,87.40
2019-02-25T16:45:37.273Z,88.00
2019-02-25T16:48:14.052Z,89.20
2019-02-25T16:50:51.419Z,89.30
2019-02-25T16:53:28.630Z,91.40
2019-02-25T16:56:07.372Z,90.40
2019-02-25T16:58:43.994Z,90.40
2019-02-25T17:01:21.511Z,90.20
2019-02-25T17:03:59.751Z,90.50
2019-02-25T17:09:14.439Z,90.00
2019-02-25T17:11:52.092Z,90.50
2019-02-25T17:14:30.226Z,90.50
2019-02-25T17:17:07.294Z,90.70
2019-02-25T17:19:44.402Z,90.30
2019-02-25T17:22:21.610Z,90.80
2019-02-25T17:24:59.917Z,90.90
2019-02-25T17:27:36.992Z,90.80
2019-02-25T17:30:20.192Z,90.90
2019-02-25T17:32:57.411Z,90.80
2019-02-25T17:35:36.054Z,90.70
2019-02-25T17:38:13.155Z,90.30
2019-02-25T17:40:50.401Z,90.50
2019-02-25T17:43:27.459Z,90.30
2019-02-25T17:46:05.209Z,90.50
2019-02-25T17:48:42.716Z,90.60
2019-02-25T17:51:20.878Z,90.50
2019-02-25T17:53:58.086Z,90.40
2019-02-25T17:56:35.246Z,90.60
2019-02-25T17:59:12.666Z,90.30
2019-02-25T18:07:06.731Z,90.70
2019-02-25T18:09:44.462Z,90.90
2019-02-25T18:12:25.418Z,90.80
2019-02-25T18:15:01.059Z,90.90
2019-02-25T18:20:14.782Z,91.30
2019-02-25T18:25:27.630Z,75.80
2019-02-25T18:28:06.235Z,77.10
2019-02-25T18:30:43.161Z,91.00
2019-02-25T18:35:57.902Z,89.70
2019-02-25T18:38:34.678Z,90.60
2019-02-25T18:41:11.823Z,89.70
2019-02-25T18:46:25.526Z,90.00
2019-02-25T18:49:03.585Z,90.00
2019-02-25T18:51:41.364Z,87.00
2019-02-25T18:56:54.465Z,90.40
2019-02-25T18:59:31.745Z,90.90
2019-02-25T19:09:56.077Z,91.00
2019-02-25T19:12:33.874Z,91.50
2019-02-25T19:17:47.866Z,91.60
2019-02-25T19:23:02.607Z,91.40
2019-02-25T19:25:39.224Z,91.50
2019-02-25T19:28:18.727Z,91.30
2019-02-25T19:30:55.067Z,91.30
2019-02-25T19:33:32.234Z,92.80
2019-02-25T19:36:09.978Z,91.60
2019-02-25T19:38:48.513Z,91.60
2019-02-25T19:41:29.564Z,91.80
2019-02-25T19:44:04.207Z,92.40
2019-02-25T19:46:42.885Z,93.00
2019-02-25T19:49:21.887Z,92.80
2019-02-25T19:51:59.309Z,77.20
2019-02-25T19:54:38.284Z,77.00
2019-02-25T19:57:16.606Z,92.60
2019-02-25T19:59:55.373Z,91.70
2019-02-25T20:02:32.235Z,91.40
2019-02-25T20:07:45.154Z,90.30
2019-02-25T20:10:22.411Z,90.90
2019-02-25T20:13:00.496Z,91.30
2019-02-25T20:15:39.955Z,90.80
2019-02-25T20:23:26.753Z,76.00
2019-02-25T20:26:04.446Z,84.90
2019-02-25T20:31:17.274Z,91.30
2019-02-25T20:36:30.627Z,92.90
2019-02-25T20:39:09.139Z,77.50
2019-02-25T20:41:48.319Z,92.20
2019-02-25T20:47:01.756Z,91.70
2019-02-25T20:49:38.442Z,91.60
2019-02-25T20:52:16.045Z,91.20
2019-02-25T20:54:53.891Z,91.70
2019-02-25T20:57:33.770Z,83.70
2019-02-25T21:00:13.077Z,91.50
2019-02-25T21:02:50.921Z,91.10
2019-02-25T21:10:38.790Z,90.20
2019-02-25T21:13:17.099Z,90.30
2019-02-25T21:15:54.162Z,91.50
2019-02-25T21:18:31.239Z,91.60
2019-02-25T21:21:10.117Z,91.00
2019-02-25T21:23:46.619Z,90.80
2019-02-25T21:26:25.467Z,90.80
2019-02-25T21:29:02.517Z,91.00
2019-02-25T21:31:43.048Z,90.60
2019-02-25T21:34:22.107Z,73.60
2019-02-25T21:36:58.315Z,90.90
2019-02-25T21:39:36.599Z,90.80
2019-02-25T21:42:16.786Z,73.20
2019-02-25T21:44:52.545Z,86.70
2019-02-25T21:47:30.915Z,85.70
2019-02-25T21:50:09.618Z,86.80
2019-02-25T21:52:47.953Z,86.00
2019-02-25T22:00:40.854Z,84.90
2019-02-25T22:03:19.499Z,84.70
2019-02-25T22:05:58.758Z,84.60
2019-02-25T22:13:46.827Z,83.80
2019-02-25T22:16:25.610Z,84.00
2019-02-25T22:19:02.265Z,83.60
2019-02-25T22:21:39.387Z,85.60
2019-02-25T22:24:16.503Z,84.70
2019-02-25T22:26:53.738Z,79.40
2019-02-25T22:34:41.998Z,82.30
2019-02-25T22:37:19.941Z,82.30
2019-02-25T22:39:57.290Z,80.20
2019-02-25T22:45:12.001Z,75.40
2019-02-25T22:50:24.875Z,79.70
2019-02-25T22:53:03.627Z,79.20
2019-02-25T22:58:17.072Z,80.50
2019-02-25T23:00:58.282Z,74.50
2019-02-25T23:06:11.235Z,78.50
2019-02-25T23:08:48.839Z,78.00
2019-02-25T23:11:27.225Z,78.30
2019-02-25T23:14:04.399Z,77.30
2019-02-25T23:16:42.028Z,78.60
2019-02-25T23:21:55.671Z,65.00
2019-02-25T23:24:35.229Z,64.00
2019-02-25T23:27:10.808Z,63.00
2019-02-25T23:29:48.427Z,79.80
2019-02-25T23:37:34.752Z,76.40
2019-02-25T23:40:12.504Z,75.20
2019-02-25T23:42:50.179Z,76.30
2019-02-25T23:45:27.215Z,75.50
2019-02-25T23:48:05.833Z,61.80
2019-02-25T23:50:42.499Z,61.30
2019-02-25T23:53:19.459Z,61.20
2019-02-25T23:55:58.437Z,60.90
2019-02-25T23:58:38.365Z,60.40
